Time;durP1;ratioP1;P1;durP2;ratioP2;P2;SDS_P1;SDS_P2;PMS_P1;PMS_P2;Temp;Humidity;BMP_temperature;BMP_pressure;BME280_temperature;BME280_humidity;BME280_pressure;Samples;Min_cycle;Max_cycle;Signal;HPM_P1;HPM_P2
2023/01/07 00:01:44;;;;;;;10.77;8.17;;;6.30;99.90;;;;;;6275337;28;20978;-61
2023/01/07 00:04:49;;;;;;;8.43;7.57;;;6.30;99.90;;;;;;6275392;28;20470;-62
2023/01/07 00:07:52;;;;;;;8.47;7.60;;;6.30;99.90;;;;;;6275617;28;20478;-62
2023/01/07 00:10:55;;;;;;;10.30;8.50;;;6.40;99.90;;;;;;6275433;28;20811;-62
2023/01/07 00:14:00;;;;;;;9.43;7.73;;;6.30;99.90;;;;;;6275248;28;20482;-63
2023/01/07 00:17:03;;;;;;;7.87;6.77;;;6.30;99.90;;;;;;6275268;28;20467;-62
2023/01/07 00:20:09;;;;;;;9.63;8.67;;;6.30;99.90;;;;;;6275058;28;20493;-63
2023/01/07 00:23:12;;;;;;;9.23;7.90;;;6.30;99.90;;;;;;6275496;28;20478;-63
2023/01/07 00:26:17;;;;;;;7.03;6.33;;;6.20;99.90;;;;;;6288251;28;20526;-63
2023/01/07 00:29:20;;;;;;;10.87;7.10;;;6.10;99.90;;;;;;6299815;28;20478;-63
2023/01/07 00:32:46;;;;;;;11.20;8.03;;;6.10;99.90;;;;;;6300220;28;20480;-64
2023/01/07 00:35:48;;;;;;;8.70;7.47;;;6.10;99.90;;;;;;6299605;28;20473;-64
2023/01/07 00:38:55;;;;;;;8.23;7.50;;;6.10;99.90;;;;;;6299983;28;20473;-64
2023/01/07 00:45:18;;;;;;;7.27;6.00;;;6.10;99.90;;;;;;6294146;28;20473;-64
2023/01/07 00:48:22;;;;;;;7.17;6.07;;;6.10;99.90;;;;;;6274767;28;20826;-63
2023/01/07 00:51:27;;;;;;;7.50;6.77;;;6.10;99.90;;;;;;6275311;28;20466;-63
2023/01/07 00:54:30;;;;;;;7.13;6.13;;;6.10;99.90;;;;;;6274422;28;20469;-64
2023/01/07 00:57:33;;;;;;;9.00;7.33;;;6.00;99.90;;;;;;6274544;28;20462;-63
2023/01/07 01:00:36;;;;;;;7.50;6.87;;;6.00;99.90;;;;;;6270366;28;20956;-63
2023/01/07 01:03:40;;;;;;;8.20;7.50;;;6.00;99.90;;;;;;6273971;28;20507;-63
2023/01/07 01:06:44;;;;;;;8.00;6.47;;;6.00;99.90;;;;;;6274638;28;20776;-63
2023/01/07 01:09:47;;;;;;;10.77;9.60;;;6.00;99.90;;;;;;6274259;28;20466;-63
2023/01/07 01:12:51;;;;;;;9.67;8.77;;;6.00;99.90;;;;;;6274560;28;20454;-63
2023/01/07 01:15:54;;;;;;;7.50;6.67;;;6.00;99.90;;;;;;6274301;28;20485;-64
2023/01/07 01:18:57;;;;;;;8.10;6.70;;;5.90;99.90;;;;;;6273515;28;20563;-63
2023/01/07 01:22:01;;;;;;;7.63;6.30;;;5.90;99.90;;;;;;6273038;28;20946;-63
2023/01/07 01:25:05;;;;;;;7.27;6.53;;;5.90;99.90;;;;;;6268918;28;20956;-64
2023/01/07 01:28:09;;;;;;;10.50;7.00;;;5.90;99.90;;;;;;6261429;28;20470;-63
2023/01/07 01:31:13;;;;;;;6.90;6.30;;;5.80;99.90;;;;;;6263792;28;20486;-64
2023/01/07 01:34:16;;;;;;;8.57;7.70;;;5.80;99.90;;;;;;6260763;28;20495;-64
2023/01/07 01:37:21;;;;;;;7.57;6.83;;;5.80;99.90;;;;;;6263447;28;20470;-63
2023/01/07 01:40:29;;;;;;;7.33;6.60;;;5.90;99.90;;;;;;6263040;28;20466;-64
2023/01/07 01:43:35;;;;;;;6.10;5.50;;;5.80;99.90;;;;;;6262571;28;20485;-64
2023/01/07 01:46:41;;;;;;;5.60;4.83;;;5.80;99.90;;;;;;6273205;28;20480;-64
2023/01/07 01:49:49;;;;;;;7.33;6.63;;;5.80;99.90;;;;;;6278457;28;20470;-63
2023/01/07 01:52:59;;;;;;;11.40;8.73;;;5.80;99.90;;;;;;6278535;28;20543;-63
2023/01/07 01:56:10;;;;;;;8.80;7.93;;;5.70;99.90;;;;;;6278694;28;20553;-64
2023/01/07 01:59:18;;;;;;;9.90;7.63;;;5.70;99.90;;;;;;6278881;28;20801;-64
2023/01/07 02:02:26;;;;;;;8.87;6.40;;;5.70;99.90;;;;;;6278109;28;20934;-64
2023/01/07 02:05:34;;;;;;;6.43;5.77;;;5.70;99.90;;;;;;6278915;28;20537;-64
2023/01/07 02:08:39;;;;;;;6.77;5.83;;;5.70;99.90;;;;;;6270542;28;20472;-64
2023/01/07 02:11:51;;;;;;;7.60;6.03;;;5.70;99.90;;;;;;6265933;28;20796;-63
2023/01/07 02:15:08;;;;;;;6.23;5.57;;;5.60;99.90;;;;;;6261745;28;20482;-63
2023/01/07 02:18:32;;;;;;;6.47;5.87;;;5.50;99.90;;;;;;6272851;28;20479;-63
2023/01/07 02:21:46;;;;;;;6.70;5.20;;;5.50;99.90;;;;;;6278058;28;20434;-64
2023/01/07 02:25:18;;;;;;;9.00;6.00;;;5.50;99.90;;;;;;6280034;28;20466;-64
2023/01/07 02:28:49;;;;;;;5.30;4.80;;;5.50;99.90;;;;;;6303181;28;20469;-63
2023/01/07 02:32:17;;;;;;;7.33;5.90;;;5.50;99.90;;;;;;6302763;28;20490;-63
2023/01/07 02:35:31;;;;;;;5.60;5.10;;;5.50;99.90;;;;;;6302783;28;20468;-63
2023/01/07 02:38:43;;;;;;;7.10;5.30;;;5.50;99.90;;;;;;6302724;28;20993;-63
2023/01/07 02:41:56;;;;;;;6.13;5.63;;;5.50;99.90;;;;;;6302784;28;20769;-63
2023/01/07 02:45:08;;;;;;;6.07;5.47;;;5.50;99.90;;;;;;6299608;28;20474;-63
2023/01/07 02:48:14;;;;;;;6.37;5.70;;;5.40;99.90;;;;;;6277276;28;20493;-63
2023/01/07 02:51:17;;;;;;;8.43;6.70;;;5.50;99.90;;;;;;6276822;28;20485;-63
2023/01/07 02:54:23;;;;;;;5.10;4.60;;;5.50;99.90;;;;;;6277176;28;20965;-64
2023/01/07 02:57:55;;;;;;;6.63;6.03;;;5.50;99.90;;;;;;6276789;28;20493;-63
2023/01/07 03:01:31;;;;;;;5.80;5.23;;;5.50;99.90;;;;;;6254716;28;20536;-63
2023/01/07 03:05:06;;;;;;;6.70;4.90;;;5.50;99.90;;;;;;6274004;28;20462;-63
2023/01/07 03:08:21;;;;;;;5.67;5.17;;;5.50;99.90;;;;;;6277160;28;20481;-62
2023/01/07 03:11:29;;;;;;;5.37;4.23;;;5.40;99.90;;;;;;6277255;28;20478;-63
2023/01/07 03:14:39;;;;;;;6.77;4.80;;;5.40;99.90;;;;;;6277257;28;20482;-63
2023/01/07 03:17:48;;;;;;;5.57;4.50;;;5.40;99.90;;;;;;6276978;28;20493;-62
2023/01/07 03:20:57;;;;;;;6.03;5.20;;;5.40;99.90;;;;;;6276964;28;20470;-62
2023/01/07 03:24:02;;;;;;;5.40;4.90;;;5.40;99.90;;;;;;6276680;28;20478;-62
2023/01/07 03:27:08;;;;;;;5.17;4.67;;;5.40;99.90;;;;;;6297034;28;20480;-62
2023/01/07 03:30:14;;;;;;;4.93;4.53;;;5.40;99.90;;;;;;6301807;28;20478;-63
2023/01/07 03:33:22;;;;;;;7.07;5.87;;;5.30;99.90;;;;;;6301478;28;20473;-63
2023/01/07 03:36:33;;;;;;;6.30;5.70;;;5.30;99.90;;;;;;6301307;28;20472;-63
2023/01/07 03:39:38;;;;;;;6.33;5.07;;;5.30;99.90;;;;;;6301472;28;20457;-63
2023/01/07 03:42:44;;;;;;;6.87;5.40;;;5.30;99.90;;;;;;6301606;28;20485;-63
2023/01/07 03:45:49;;;;;;;8.37;7.63;;;5.30;99.90;;;;;;6291720;28;20450;-63
2023/01/07 03:48:52;;;;;;;10.70;9.60;;;5.20;99.90;;;;;;6275765;28;20929;-63
2023/01/07 03:51:57;;;;;;;8.50;7.80;;;5.20;99.90;;;;;;6276378;28;20473;-63
2023/01/07 03:55:00;;;;;;;7.00;6.40;;;5.20;99.90;;;;;;6276176;28;20470;-63
2023/01/07 03:58:03;;;;;;;5.73;5.20;;;5.20;99.90;;;;;;6276581;28;20462;-63
2023/01/07 04:01:06;;;;;;;5.57;5.00;;;5.20;99.90;;;;;;6276109;28;20961;-64
2023/01/07 04:04:10;;;;;;;4.27;3.87;;;5.20;99.90;;;;;;6276020;28;20769;-63
2023/01/07 04:07:14;;;;;;;4.10;3.70;;;5.20;99.90;;;;;;6275919;28;20472;-62
2023/01/07 04:10:18;;;;;;;5.37;4.87;;;5.20;99.90;;;;;;6275054;28;20466;-63
2023/01/07 04:13:21;;;;;;;4.60;4.20;;;5.20;99.90;;;;;;6266550;28;20467;-63
2023/01/07 04:16:24;;;;;;;4.57;4.17;;;5.20;99.90;;;;;;6275711;28;20548;-63
2023/01/07 04:19:27;;;;;;;4.57;4.17;;;5.20;99.90;;;;;;6276035;28;20628;-63
2023/01/07 04:22:32;;;;;;;4.50;4.10;;;5.10;99.90;;;;;;6275896;28;20489;-63
2023/01/07 04:25:35;;;;;;;4.00;3.60;;;5.10;99.90;;;;;;6283616;28;20511;-63
2023/01/07 04:28:38;;;;;;;4.23;3.90;;;5.10;99.90;;;;;;6300055;28;20477;-62
2023/01/07 04:31:41;;;;;;;4.20;3.80;;;5.10;99.90;;;;;;6300173;28;20473;-64
2023/01/07 04:34:45;;;;;;;4.27;3.73;;;5.00;99.90;;;;;;6300198;28;20471;-64
2023/01/07 04:37:49;;;;;;;4.57;3.80;;;5.10;99.90;;;;;;6299952;28;20473;-63
2023/01/07 04:40:52;;;;;;;6.17;4.07;;;5.10;99.90;;;;;;6300162;28;20488;-63
2023/01/07 04:43:55;;;;;;;3.63;3.33;;;5.10;99.90;;;;;;6300176;28;20476;-64
2023/01/07 04:46:59;;;;;;;5.17;4.67;;;5.10;99.90;;;;;;6280218;28;20782;-64
2023/01/07 04:50:02;;;;;;;5.93;4.27;;;5.00;99.90;;;;;;6274961;28;20580;-64
2023/01/07 04:53:06;;;;;;;6.47;4.67;;;5.00;99.90;;;;;;6275312;28;20463;-64
2023/01/07 04:56:09;;;;;;;3.60;3.30;;;5.00;99.90;;;;;;6274960;28;20498;-64
2023/01/07 04:59:13;;;;;;;4.40;4.03;;;4.90;99.90;;;;;;6274999;28;20796;-63
2023/01/07 05:02:16;;;;;;;3.93;3.50;;;4.90;99.90;;;;;;6274708;28;20485;-64
2023/01/07 05:05:19;;;;;;;7.27;4.20;;;4.90;99.90;;;;;;6274794;28;20480;-64
2023/01/07 05:08:24;;;;;;;4.33;3.73;;;4.90;99.90;;;;;;6274357;28;20489;-63
2023/01/07 05:11:27;;;;;;;5.13;3.80;;;4.90;99.90;;;;;;6274995;28;20586;-63
2023/01/07 05:14:30;;;;;;;3.57;3.27;;;4.90;99.90;;;;;;6274671;28;20470;-63
2023/01/07 05:17:34;;;;;;;4.37;3.47;;;4.90;99.90;;;;;;6274568;28;20470;-63
2023/01/07 05:20:37;;;;;;;4.37;3.57;;;4.90;99.90;;;;;;6274490;28;20482;-63
2023/01/07 05:23:41;;;;;;;5.83;4.43;;;4.90;99.90;;;;;;6274918;28;20485;-63
2023/01/07 05:26:44;;;;;;;4.00;3.60;;;4.90;99.90;;;;;;6292529;28;20465;-64
2023/01/07 05:29:48;;;;;;;3.63;3.33;;;4.80;99.90;;;;;;6299864;28;20476;-64
2023/01/07 05:32:51;;;;;;;3.67;3.40;;;4.90;99.90;;;;;;6299324;28;20469;-64
2023/01/07 05:35:54;;;;;;;3.40;3.10;;;4.80;99.90;;;;;;6299407;28;20952;-64
2023/01/07 05:38:58;;;;;;;4.07;3.57;;;4.70;99.90;;;;;;6249996;28;20482;-64
2023/01/07 05:42:02;;;;;;;4.47;3.27;;;4.70;99.90;;;;;;6249649;28;20482;-64
2023/01/07 05:45:06;;;;;;;5.00;3.47;;;4.70;99.90;;;;;;6253127;28;20783;-64
2023/01/07 05:48:09;;;;;;;3.20;3.00;;;4.70;99.90;;;;;;6273772;28;20492;-64
2023/01/07 05:51:12;;;;;;;3.27;3.00;;;4.60;99.90;;;;;;6273993;28;20580;-64
2023/01/07 05:54:17;;;;;;;4.13;3.10;;;4.60;99.90;;;;;;6274053;28;20477;-64
2023/01/07 05:57:20;;;;;;;3.70;3.40;;;4.60;99.90;;;;;;6273792;28;20485;-64
2023/01/07 06:00:23;;;;;;;3.57;3.27;;;4.50;99.90;;;;;;6273842;28;20785;-64
2023/01/07 06:03:26;;;;;;;3.00;2.77;;;4.60;99.90;;;;;;6274177;28;20791;-64
2023/01/07 06:06:30;;;;;;;5.70;3.23;;;4.60;99.90;;;;;;6273423;28;20555;-64
2023/01/07 06:09:34;;;;;;;3.70;3.03;;;4.60;99.90;;;;;;6273921;28;20861;-63
2023/01/07 06:12:37;;;;;;;4.20;3.80;;;4.60;99.90;;;;;;6273884;28;20879;-63
2023/01/07 06:15:40;;;;;;;3.80;3.50;;;4.50;99.90;;;;;;6273693;28;20890;-64
2023/01/07 06:18:44;;;;;;;4.90;3.80;;;4.50;99.90;;;;;;6274164;28;20466;-63
2023/01/07 06:21:47;;;;;;;3.83;3.43;;;4.50;99.90;;;;;;6265171;28;20882;-64
2023/01/07 06:24:51;;;;;;;3.40;3.20;;;4.50;99.90;;;;;;6275376;28;20500;-64
2023/01/07 06:27:56;;;;;;;3.70;3.40;;;4.50;99.90;;;;;;6298414;28;20474;-63
2023/01/07 06:30:59;;;;;;;3.40;3.10;;;4.50;99.90;;;;;;6298493;28;20797;-64
2023/01/07 06:34:03;;;;;;;4.77;4.20;;;4.60;99.90;;;;;;6302890;28;20554;-64
2023/01/07 06:37:06;;;;;;;5.97;4.40;;;4.60;99.90;;;;;;6303008;28;20963;-64
2023/01/07 06:40:11;;;;;;;3.90;3.60;;;4.60;99.90;;;;;;6302927;28;20465;-64
2023/01/07 06:43:15;;;;;;;5.20;4.00;;;4.50;99.90;;;;;;6302790;28;20476;-64
2023/01/07 06:46:18;;;;;;;4.00;3.37;;;4.50;99.90;;;;;;6288722;28;20469;-64
2023/01/07 06:49:21;;;;;;;4.20;3.57;;;4.50;99.90;;;;;;6277344;28;20485;-65
2023/01/07 06:52:25;;;;;;;5.50;4.33;;;4.60;99.90;;;;;;6277978;28;20469;-64
2023/01/07 06:55:30;;;;;;;5.07;4.00;;;4.60;99.90;;;;;;6277550;28;20830;-64
2023/01/07 06:58:33;;;;;;;5.60;4.53;;;4.60;99.90;;;;;;6277499;28;20474;-63
2023/01/07 07:01:36;;;;;;;5.13;4.27;;;4.60;99.90;;;;;;6276966;28;20475;-64
2023/01/07 07:04:40;;;;;;;6.80;4.73;;;4.60;99.90;;;;;;6277604;28;20466;-64
2023/01/07 07:07:43;;;;;;;5.90;5.40;;;4.70;99.90;;;;;;6277249;28;20911;-63
2023/01/07 07:10:48;;;;;;;4.90;4.50;;;4.80;99.90;;;;;;6277280;28;20478;-63
2023/01/07 07:13:51;;;;;;;7.13;4.70;;;4.80;99.90;;;;;;6277363;28;20477;-63
2023/01/07 07:16:54;;;;;;;4.90;4.50;;;4.90;99.90;;;;;;6277295;28;20816;-64
2023/01/07 07:19:57;;;;;;;6.47;5.17;;;4.90;99.90;;;;;;6277467;28;20478;-64
2023/01/07 07:23:01;;;;;;;6.03;5.07;;;5.00;99.90;;;;;;6277285;28;20470;-64
2023/01/07 07:26:06;;;;;;;4.80;4.40;;;5.00;99.90;;;;;;6288914;28;20492;-64
2023/01/07 07:29:09;;;;;;;5.03;4.53;;;5.10;99.90;;;;;;6301707;28;20469;-63
2023/01/07 07:32:13;;;;;;;4.97;4.47;;;5.10;99.90;;;;;;6302218;28;20481;-64
2023/01/07 07:35:16;;;;;;;4.80;4.43;;;5.30;99.90;;;;;;6302129;28;20465;-64
2023/01/07 07:38:19;;;;;;;6.10;4.47;;;5.30;99.90;;;;;;6301450;28;20488;-64
2023/01/07 07:41:24;;;;;;;6.57;5.50;;;5.40;99.90;;;;;;6301451;28;20474;-64
2023/01/07 07:44:27;;;;;;;4.93;4.33;;;5.50;99.90;;;;;;6301086;28;20480;-64
2023/01/07 07:47:30;;;;;;;6.53;4.70;;;5.60;99.90;;;;;;6276813;28;20470;-63
2023/01/07 07:50:34;;;;;;;7.10;5.70;;;5.70;99.90;;;;;;6276541;28;20488;-63
2023/01/07 07:53:37;;;;;;;6.10;5.60;;;5.80;99.90;;;;;;6275708;28;20467;-64
2023/01/07 07:56:41;;;;;;;5.97;5.30;;;5.90;99.90;;;;;;6261598;28;20505;-64
2023/01/07 07:59:44;;;;;;;5.03;4.47;;;6.00;99.90;;;;;;6258567;28;20485;-63
2023/01/07 08:02:48;;;;;;;5.00;4.60;;;6.10;99.90;;;;;;6265637;28;20466;-64
2023/01/07 08:05:51;;;;;;;7.77;4.60;;;6.20;99.90;;;;;;6261811;28;20467;-64
2023/01/07 08:08:54;;;;;;;5.03;4.30;;;6.30;99.90;;;;;;6264173;28;20800;-63
2023/01/07 08:11:59;;;;;;;4.90;4.50;;;6.30;99.90;;;;;;6261519;28;20486;-65
2023/01/07 08:15:02;;;;;;;5.80;5.07;;;6.40;99.90;;;;;;6267493;28;20458;-64
2023/01/07 08:18:07;;;;;;;7.57;5.20;;;6.50;99.90;;;;;;6265153;28;20474;-63
2023/01/07 08:21:11;;;;;;;6.27;4.80;;;6.60;99.90;;;;;;6266238;28;20471;-64
2023/01/07 08:24:14;;;;;;;6.93;6.33;;;6.60;99.90;;;;;;6262162;28;20473;-64
2023/01/07 08:27:18;;;;;;;7.03;6.17;;;6.80;99.90;;;;;;6265287;28;20481;-63
2023/01/07 08:30:22;;;;;;;5.63;5.13;;;6.90;99.90;;;;;;6261539;28;20481;-63
2023/01/07 08:33:25;;;;;;;6.90;6.10;;;7.00;99.90;;;;;;6249810;28;20490;-64
2023/01/07 08:36:29;;;;;;;6.47;5.90;;;7.10;99.90;;;;;;6250526;28;20475;-64
2023/01/07 08:39:32;;;;;;;7.73;6.50;;;7.20;99.90;;;;;;6250115;28;20466;-64
2023/01/07 08:42:37;;;;;;;7.07;6.00;;;7.30;99.90;;;;;;6250610;28;20439;-64
2023/01/07 08:45:40;;;;;;;7.73;6.97;;;7.30;99.90;;;;;;6259106;28;20482;-64
2023/01/07 08:48:43;;;;;;;8.13;7.43;;;7.50;99.90;;;;;;6274895;28;20478;-63
2023/01/07 08:51:46;;;;;;;8.87;7.97;;;7.50;99.90;;;;;;6274806;28;20759;-63
2023/01/07 08:54:50;;;;;;;12.90;8.43;;;7.60;99.90;;;;;;6274461;28;20454;-65
2023/01/07 08:57:55;;;;;;;8.83;7.93;;;7.70;99.90;;;;;;6274756;28;20485;-64
2023/01/07 09:01:02;;;;;;;8.67;7.03;;;7.80;99.90;;;;;;6274655;28;20469;-64
2023/01/07 09:04:05;;;;;;;10.23;7.93;;;8.00;99.90;;;;;;6274613;28;20470;-64
2023/01/07 09:07:09;;;;;;;8.27;7.47;;;8.20;99.90;;;;;;6274728;28;20470;-65
2023/01/07 09:10:13;;;;;;;8.37;7.57;;;8.60;99.90;;;;;;6274767;28;20481;-65
2023/01/07 09:13:17;;;;;;;9.87;8.50;;;8.90;99.90;;;;;;6274726;28;20474;-64
2023/01/07 09:16:20;;;;;;;9.17;7.70;;;9.00;99.90;;;;;;6274557;28;20466;-64
2023/01/07 09:19:24;;;;;;;11.63;10.43;;;9.30;99.90;;;;;;6274444;28;20485;-64
2023/01/07 09:22:27;;;;;;;10.47;9.37;;;9.60;99.90;;;;;;6274575;28;20480;-64
2023/01/07 09:25:30;;;;;;;10.37;9.37;;;9.70;99.90;;;;;;6281318;28;20480;-64
2023/01/07 09:28:35;;;;;;;10.30;9.30;;;9.80;99.90;;;;;;6299051;28;20484;-63
2023/01/07 09:31:38;;;;;;;10.10;9.10;;;10.00;99.90;;;;;;6298945;28;20473;-63
2023/01/07 09:34:41;;;;;;;11.27;10.00;;;10.20;99.90;;;;;;6289747;28;20469;-63
2023/01/07 09:37:44;;;;;;;10.77;9.67;;;10.20;99.90;;;;;;6298926;28;20477;-63
2023/01/07 09:40:48;;;;;;;12.67;11.03;;;10.20;99.90;;;;;;6299224;28;20472;-63
2023/01/07 09:43:57;;;;;;;11.10;10.10;;;10.50;99.90;;;;;;6299048;28;20473;-63
2023/01/07 09:47:06;;;;;;;12.30;9.03;;;10.90;99.90;;;;;;6278828;28;20781;-63
2023/01/07 09:50:18;;;;;;;10.50;9.57;;;11.20;99.40;;;;;;6273731;28;20478;-64
2023/01/07 09:53:26;;;;;;;12.50;9.73;;;11.50;98.70;;;;;;6273920;28;20462;-64
2023/01/07 09:56:31;;;;;;;10.37;9.47;;;11.60;97.90;;;;;;6273834;28;20466;-64
2023/01/07 09:59:36;;;;;;;10.43;9.47;;;11.60;97.70;;;;;;6274048;28;20485;-64
2023/01/07 10:02:50;;;;;;;10.53;9.53;;;11.20;97.70;;;;;;6273668;28;20482;-64
2023/01/07 10:06:04;;;;;;;10.70;9.60;;;10.90;98.30;;;;;;6273466;28;20478;-64
2023/01/07 10:09:19;;;;;;;11.67;10.60;;;10.80;98.80;;;;;;6278686;28;20957;-63
2023/01/07 10:12:30;;;;;;;10.43;9.43;;;10.60;99.10;;;;;;6278688;28;20489;-60
2023/01/07 10:15:58;;;;;;;13.33;11.20;;;10.60;99.50;;;;;;6278689;28;20445;-60
2023/01/07 10:19:13;;;;;;;17.93;11.67;;;10.70;99.90;;;;;;6278866;28;20556;-60
2023/01/07 10:22:22;;;;;;;14.10;12.70;;;11.00;99.80;;;;;;6278179;28;20477;-60
2023/01/07 10:25:29;;;;;;;12.30;10.97;;;11.40;99.30;;;;;;6284756;28;20477;-60
2023/01/07 10:28:40;;;;;;;17.90;11.60;;;11.90;98.40;;;;;;6303046;28;20473;-60
2023/01/07 10:31:45;;;;;;;12.97;11.40;;;12.20;97.70;;;;;;6303314;28;20469;-60
2023/01/07 10:34:52;;;;;;;13.70;11.53;;;12.30;96.80;;;;;;6302866;28;20464;-60
2023/01/07 10:38:00;;;;;;;11.83;10.63;;;12.40;96.50;;;;;;6293501;28;20480;-60
2023/01/07 10:41:09;;;;;;;12.63;11.53;;;12.50;96.60;;;;;;6302751;28;20473;-60
2023/01/07 10:44:48;;;;;;;11.63;10.50;;;12.60;96.50;;;;;;6302704;28;20473;-60
2023/01/07 10:48:21;;;;;;;12.43;11.17;;;12.90;96.20;;;;;;6240769;28;20489;-60
2023/01/07 10:51:46;;;;;;;10.40;9.40;;;13.10;95.90;;;;;;6252587;28;20467;-59
2023/01/07 10:55:13;;;;;;;10.27;9.27;;;13.70;95.60;;;;;;6260917;28;20904;-59
2023/01/07 10:58:16;;;;;;;11.67;9.43;;;14.10;94.70;;;;;;6267082;28;20793;-59
2023/01/07 11:01:25;;;;;;;11.67;10.57;;;14.50;94.10;;;;;;6266020;28;20477;-59
2023/01/07 11:04:30;;;;;;;10.90;9.57;;;14.80;93.30;;;;;;6272662;28;20523;-60
2023/01/07 11:07:42;;;;;;;11.50;10.10;;;15.10;92.90;;;;;;6277001;28;20466;-60
2023/01/07 11:10:45;;;;;;;9.43;8.50;;;15.30;92.30;;;;;;6277011;28;20466;-60
2023/01/07 11:13:56;;;;;;;9.23;8.33;;;15.70;91.90;;;;;;6277598;28;20773;-60
2023/01/07 11:17:07;;;;;;;9.03;8.13;;;16.00;91.00;;;;;;6276808;28;20489;-60
2023/01/07 11:20:12;;;;;;;9.90;8.90;;;16.20;90.40;;;;;;6277474;28;20473;-60
2023/01/07 11:23:34;;;;;;;12.63;8.70;;;16.50;89.70;;;;;;6277217;28;20469;-60
2023/01/07 11:26:38;;;;;;;9.80;7.70;;;17.30;88.60;;;;;;6293517;28;20497;-60
2023/01/07 11:29:44;;;;;;;10.93;7.53;;;19.00;84.60;;;;;;6301833;28;20477;-60
2023/01/07 11:32:56;;;;;;;8.70;7.90;;;19.90;77.40;;;;;;6301450;28;20325;-60
2023/01/07 11:36:01;;;;;;;9.73;8.37;;;19.90;73.70;;;;;;6301789;28;20223;-60
2023/01/07 11:39:10;;;;;;;7.97;7.17;;;19.70;72.70;;;;;;6301422;28;20639;-61
2023/01/07 11:45:49;;;;;;;8.67;6.97;;;19.40;72.30;;;;;;6289539;28;20653;-60
2023/01/07 11:49:23;;;;;;;8.77;7.20;;;19.50;70.20;;;;;;6273639;28;20326;-60
2023/01/07 11:52:28;;;;;;;14.03;7.17;;;19.60;69.30;;;;;;6271673;28;20227;-60
2023/01/07 11:55:31;;;;;;;5.23;4.53;;;19.60;69.00;;;;;;6264043;28;20571;-60
2023/01/07 11:58:37;;;;;;;4.00;3.63;;;19.40;67.00;;;;;;6262214;28;20224;-60
2023/01/07 12:01:42;;;;;;;3.77;3.47;;;19.40;66.60;;;;;;6251222;28;20669;-60
2023/01/07 12:04:45;;;;;;;7.10;4.03;;;19.30;66.20;;;;;;6256905;28;20231;-60
2023/01/07 12:07:51;;;;;;;7.40;6.00;;;19.90;67.10;;;;;;6275994;28;20236;-60
2023/01/07 12:10:56;;;;;;;5.43;4.80;;;20.70;64.10;;;;;;6267261;28;20251;-60
2023/01/07 12:14:06;;;;;;;8.70;4.97;;;21.10;62.00;;;;;;6258573;28;20231;-60
2023/01/07 12:17:14;;;;;;;6.20;4.90;;;21.00;61.00;;;;;;6261252;28;20220;-61
2023/01/07 12:20:36;;;;;;;5.50;4.43;;;21.60;59.20;;;;;;6266637;28;20306;-60
2023/01/07 12:23:52;;;;;;;3.90;3.60;;;22.80;57.40;;;;;;6260384;28;20220;-60
2023/01/07 12:27:04;;;;;;;5.40;4.23;;;23.80;53.50;;;;;;6266950;28;20567;-60
2023/01/07 12:30:22;;;;;;;5.40;4.90;;;24.40;50.80;;;;;;6261859;28;20628;-60
2023/01/07 12:33:39;;;;;;;4.90;4.40;;;24.30;49.40;;;;;;6265154;28;20250;-60
2023/01/07 12:36:48;;;;;;;6.73;4.10;;;23.90;49.20;;;;;;6263434;28;20224;-60
2023/01/07 12:40:01;;;;;;;4.97;4.40;;;24.10;48.40;;;;;;6263437;28;20567;-60
2023/01/07 12:43:12;;;;;;;5.40;4.37;;;24.10;48.30;;;;;;6257337;28;20231;-60
2023/01/07 12:46:19;;;;;;;8.27;4.80;;;24.50;48.20;;;;;;6263487;28;20243;-61
2023/01/07 12:49:28;;;;;;;5.50;4.50;;;24.90;47.20;;;;;;6267867;28;20693;-60
2023/01/07 12:52:40;;;;;;;7.13;4.20;;;25.10;46.10;;;;;;6259158;28;20227;-60
2023/01/07 12:55:48;;;;;;;5.90;4.57;;;25.20;44.70;;;;;;6259538;28;20223;-60
2023/01/07 12:58:58;;;;;;;9.23;4.67;;;25.00;44.40;;;;;;6250724;28;20231;-60
2023/01/07 13:02:21;;;;;;;4.70;4.17;;;25.20;44.60;;;;;;6254166;28;20525;-63
2023/01/07 13:05:28;;;;;;;5.67;4.37;;;25.50;43.80;;;;;;6273925;28;20314;-61
2023/01/07 13:08:40;;;;;;;7.70;5.80;;;25.80;42.80;;;;;;6274011;28;20237;-61
2023/01/07 13:15:14;;;;;;;4.20;3.80;;;27.80;39.60;;;;;;6262822;28;20293;-62
2023/01/07 13:18:20;;;;;;;4.53;4.13;;;28.70;37.40;;;;;;6273939;28;20235;-60
2023/01/07 13:21:24;;;;;;;4.43;4.03;;;29.00;36.10;;;;;;6273834;28;20607;-60
2023/01/07 13:24:41;;;;;;;4.40;4.00;;;28.90;35.50;;;;;;6274074;28;20230;-59
2023/01/07 13:28:37;;;;;;;3.33;3.13;;;28.10;35.80;;;;;;6248951;28;20322;-61
2023/01/07 13:32:15;;;;;;;3.10;2.90;;;27.60;36.10;;;;;;6235809;28;20224;-62
2023/01/07 13:35:49;;;;;;;4.23;3.73;;;27.40;36.30;;;;;;6220343;28;20598;-61
2023/01/07 13:39:27;;;;;;;6.63;4.30;;;27.20;36.30;;;;;;6264891;28;20242;-61
2023/01/07 13:42:41;;;;;;;4.63;4.23;;;26.30;37.10;;;;;;6268019;28;20227;-61
2023/01/07 13:45:55;;;;;;;5.07;3.77;;;25.30;38.60;;;;;;6279235;28;20203;-60
2023/01/07 13:48:59;;;;;;;3.97;3.40;;;24.40;40.30;;;;;;6278723;28;20250;-61
2023/01/07 13:52:15;;;;;;;4.20;3.80;;;23.60;41.30;;;;;;6279737;28;20228;-62
2023/01/07 13:55:33;;;;;;;4.17;3.60;;;23.00;42.20;;;;;;6279650;28;20234;-60
2023/01/07 13:58:44;;;;;;;4.20;3.80;;;22.60;42.90;;;;;;6278886;28;20565;-61
2023/01/07 14:02:16;;;;;;;5.00;3.20;;;22.60;43.60;;;;;;6278738;28;20247;-61
2023/01/07 14:05:25;;;;;;;4.13;3.03;;;22.30;43.80;;;;;;6278534;28;20238;-61
2023/01/07 14:08:28;;;;;;;5.13;3.70;;;21.70;44.90;;;;;;6278330;28;20232;-61
2023/01/07 14:11:58;;;;;;;3.40;3.00;;;21.00;45.70;;;;;;6278577;28;20223;-60
2023/01/07 14:15:29;;;;;;;3.90;2.97;;;20.20;46.90;;;;;;6278219;28;20235;-60
2023/01/07 14:18:52;;;;;;;3.00;2.70;;;19.50;48.30;;;;;;6278089;28;20223;-60
2023/01/07 14:22:09;;;;;;;4.47;3.70;;;18.70;49.70;;;;;;6278339;28;20635;-59
2023/01/07 14:25:35;;;;;;;4.40;2.77;;;18.00;51.70;;;;;;6283318;28;20313;-59
2023/01/07 14:29:23;;;;;;;3.63;3.33;;;17.30;53.00;;;;;;6302762;28;20917;-60
2023/01/07 14:32:31;;;;;;;3.03;2.73;;;16.70;55.00;;;;;;6302807;28;20949;-60
2023/01/07 14:35:36;;;;;;;4.23;3.23;;;16.10;56.60;;;;;;6302886;28;20476;-60
2023/01/07 14:38:59;;;;;;;3.50;2.50;;;15.70;58.40;;;;;;6287448;28;20804;-61
2023/01/07 14:42:44;;;;;;;3.93;2.83;;;15.20;59.70;;;;;;6278027;28;20473;-61
2023/01/07 14:45:54;;;;;;;3.80;3.50;;;14.70;61.70;;;;;;6201239;28;20805;-60
2023/01/07 14:49:18;;;;;;;3.60;3.30;;;14.40;63.20;;;;;;6204014;28;20484;-60
2023/01/07 14:53:00;;;;;;;6.27;3.20;;;14.10;64.50;;;;;;6267719;28;20501;-60
2023/01/07 14:56:27;;;;;;;4.37;3.37;;;13.90;66.40;;;;;;6262636;28;20485;-59
2023/01/07 15:00:08;;;;;;;3.63;3.33;;;13.50;68.90;;;;;;6277690;28;20807;-59
2023/01/07 15:03:35;;;;;;;3.70;3.40;;;13.30;70.60;;;;;;6259707;28;20466;-59
2023/01/07 15:06:39;;;;;;;9.53;3.70;;;13.10;72.50;;;;;;6277059;28;20461;-59
2023/01/07 15:16:38;;;;;;;7.57;3.87;;;12.50;77.10;;;;;;6277116;28;20485;-59
2023/01/07 15:19:43;;;;;;;7.10;4.57;;;12.30;79.30;;;;;;6277602;28;20548;-59
2023/01/07 15:22:58;;;;;;;5.63;5.03;;;12.10;81.80;;;;;;6277275;28;20470;-60
2023/01/07 15:26:08;;;;;;;3.97;3.57;;;12.00;83.40;;;;;;6288447;28;20477;-60
2023/01/07 15:29:19;;;;;;;7.10;4.90;;;11.80;84.50;;;;;;6301780;28;20481;-61
2023/01/07 15:32:36;;;;;;;8.30;6.10;;;11.70;85.80;;;;;;6301949;28;20491;-59
2023/01/07 15:35:43;;;;;;;10.53;6.53;;;11.60;87.20;;;;;;6301848;28;20470;-59
2023/01/07 15:38:48;;;;;;;14.93;10.87;;;11.50;88.80;;;;;;6301417;28;20480;-59
2023/01/07 15:41:54;;;;;;;12.30;7.93;;;11.40;90.30;;;;;;6301575;28;20489;-58
2023/01/07 15:45:00;;;;;;;8.23;6.70;;;11.30;91.00;;;;;;6298525;28;20538;-59
2023/01/07 15:48:11;;;;;;;9.73;7.80;;;11.20;91.40;;;;;;6276023;28;20539;-59
2023/01/07 15:51:16;;;;;;;10.93;8.30;;;11.10;91.90;;;;;;6276532;28;20466;-59
2023/01/07 15:54:24;;;;;;;16.70;9.33;;;11.10;92.50;;;;;;6283560;28;20474;-60
2023/01/07 15:57:33;;;;;;;13.90;9.90;;;11.00;92.90;;;;;;6274405;28;20494;-62
2023/01/07 16:00:38;;;;;;;21.07;13.50;;;10.90;93.50;;;;;;6276675;28;20450;-63
2023/01/07 16:03:43;;;;;;;13.17;11.20;;;10.80;93.90;;;;;;6276308;28;20447;-62
2023/01/07 16:06:46;;;;;;;16.03;11.33;;;10.80;94.40;;;;;;6277772;28;20450;-63
2023/01/07 16:09:50;;;;;;;17.23;11.33;;;10.70;94.80;;;;;;6278333;28;20480;-64
2023/01/07 16:12:55;;;;;;;14.30;10.60;;;10.60;95.20;;;;;;6279584;28;20464;-64
2023/01/07 16:16:02;;;;;;;17.10;10.50;;;10.60;95.50;;;;;;6279520;28;20466;-63
2023/01/07 16:19:05;;;;;;;14.13;9.17;;;10.50;95.80;;;;;;6278878;28;20549;-63
2023/01/07 16:22:13;;;;;;;16.60;10.00;;;10.40;96.10;;;;;;6275687;28;20818;-64
2023/01/07 16:25:25;;;;;;;11.83;8.60;;;10.30;96.50;;;;;;6280877;28;20481;-63
2023/01/07 16:28:32;;;;;;;9.60;8.20;;;10.20;96.70;;;;;;6289402;28;20463;-63
2023/01/07 16:31:38;;;;;;;10.40;8.20;;;10.20;97.20;;;;;;6258541;28;20471;-63
2023/01/07 16:35:03;;;;;;;8.87;7.73;;;10.10;97.60;;;;;;6261072;28;20736;-62
2023/01/07 16:38:07;;;;;;;9.87;6.83;;;10.00;98.10;;;;;;6257163;28;20966;-63
2023/01/07 16:41:20;;;;;;;8.70;7.80;;;10.00;98.40;;;;;;6250426;28;20471;-63
2023/01/07 16:44:57;;;;;;;9.97;8.17;;;9.90;99.30;;;;;;6250539;28;20482;-63